^^
Datos históricos de la estación: Murcia-Puente Tocinos
Diario Informe para Abril 7, 2019 Unidades:  Métrico    Ingés   Ambas
Diario Semanal Mensual Anual
  Máxima: Mínima: Promedio:
Temperatura: 19.6 °C 10.1 °C 14.8 °C
Punto de rocio: 5.8 °C 1.4 °C 3.7 °C
Humedad: 74% 30% 49%
Velocidad viento: 26.2km/h 2.2km/h 12.9km/h
Racha viento: 50.1km/h - -
Viento- - Oeste
Presión: 1014.0 hPa 1006.3 hPa -
Precipitación: 0.0 mm    
 
 
Tabla de datos para Abril 7, 2019
Hora Temperatura Punto de rocio Presión Viento Velocidad viento Racha viento Humedad Intensidad lluvia(por hora) Nubes
00:04 12.9 °C 3.6 °C 1006.6 hPa SSO 11.9 km/h 18.5 km/h 53.1% 0.0 mm
00:09 12.8 °C 3.7 °C 1006.6 hPa SO 11.4 km/h 19.3 km/h 53.8% 0.0 mm
00:14 12.8 °C 3.4 °C 1006.6 hPa SO 10.3 km/h 17.7 km/h 53% 0.0 mm
00:19 12.8 °C 3.4 °C 1006.8 hPa SO 10.3 km/h 17.7 km/h 53% 0.0 mm
00:24 12.8 °C 3.3 °C 1006.8 hPa SO 10.3 km/h 18.5 km/h 52.5% 0.0 mm
00:29 12.9 °C 2.8 °C 1006.8 hPa SO 10.3 km/h 20.9 km/h 50.2% 0.0 mm
00:34 13.1 °C 2.6 °C 1006.8 hPa OSO 10.3 km/h 22.2 km/h 49% 0.0 mm
00:39 13.1 °C 2.6 °C 1006.6 hPa OSO 10.9 km/h 22.5 km/h 49% 0.0 mm
00:44 13 °C 2.5 °C 1006.6 hPa OSO 11.9 km/h 20.9 km/h 49% 0.0 mm
00:49 12.9 °C 2.4 °C 1006.8 hPa OSO 11.9 km/h 20.4 km/h 49% 0.0 mm
00:54 12.8 °C 2.4 °C 1006.8 hPa SO 11.9 km/h 20.9 km/h 49% 0.0 mm
00:59 12.8 °C 2.3 °C 1006.8 hPa SO 11.6 km/h 22.2 km/h 49% 0.0 mm
01:04 12.8 °C 2.2 °C 1006.8 hPa OSO 11.1 km/h 22.5 km/h 48.4% 0.0 mm
01:09 12.7 °C 2 °C 1006.7 hPa OSO 11.5 km/h 20.4 km/h 48.2% 0.0 mm
01:14 12.7 °C 2.2 °C 1006.7 hPa OSO 11.9 km/h 20.9 km/h 49% 0.0 mm
01:19 12.6 °C 2.2 °C 1006.9 hPa SO 11.2 km/h 20.9 km/h 49.1% 0.0 mm
01:24 12.4 °C 2.3 °C 1006.9 hPa SSO 10.3 km/h 17.2 km/h 49.9% 0.0 mm
01:29 12.3 °C 2.2 °C 1006.9 hPa SO 10 km/h 17.7 km/h 50% 0.0 mm
01:34 12.2 °C 2.2 °C 1006.9 hPa SO 9.5 km/h 20.1 km/h 50.5% 0.0 mm
01:39 12.1 °C 2.4 °C 1006.8 hPa SO 9.7 km/h 20.9 km/h 51.6% 0.0 mm
01:44 11.8 °C 2.4 °C 1006.8 hPa SO 10 km/h 22.2 km/h 52.3% 0.0 mm
01:49 11.8 °C 2.5 °C 1006.8 hPa SO 10.9 km/h 27 km/h 53% 0.0 mm
01:54 11.9 °C 2.6 °C 1006.7 hPa SO 11.9 km/h 29.1 km/h 52.9% 0.0 mm
01:59 12.1 °C 2.5 °C 1006.7 hPa SO 12.1 km/h 29.6 km/h 52% 0.0 mm
02:04 12.2 °C 2.6 °C 1006.7 hPa SO 12.2 km/h 29 km/h 52% 0.0 mm
02:09 12.2 °C 2.3 °C 1006.6 hPa SO 12.6 km/h 24.1 km/h 51% 0.0 mm
02:14 12.2 °C 2.3 °C 1006.6 hPa SO 13 km/h 25.9 km/h 51% 0.0 mm
02:19 12.2 °C 2.3 °C 1006.7 hPa SO 13.5 km/h 25.7 km/h 51% 0.0 mm
02:24 12.2 °C 2.3 °C 1006.7 hPa SO 14 km/h 22.5 km/h 51% 0.0 mm
02:29 12.2 °C 2.4 °C 1006.7 hPa SO 13.2 km/h 20.9 km/h 51.3% 0.0 mm
02:34 12.2 °C 2.6 °C 1006.7 hPa SO 12.2 km/h 20.9 km/h 52% 0.0 mm
02:39 12.1 °C 2.6 °C 1006.7 hPa SO 11 km/h 20.9 km/h 52% 0.0 mm
02:44 12.1 °C 2.5 °C 1006.7 hPa SO 9.5 km/h 16.7 km/h 52% 0.0 mm
02:49 12 °C 2.5 °C 1006.7 hPa SSO 9.7 km/h 20.9 km/h 52% 0.0 mm
02:54 11.9 °C 2.5 °C 1006.7 hPa SSO 10 km/h 20.9 km/h 52.5% 0.0 mm
02:59 11.9 °C 2.6 °C 1006.7 hPa SSO 10 km/h 20.9 km/h 53% 0.0 mm
03:04 11.8 °C 2.5 °C 1006.7 hPa SSO 10 km/h 20.4 km/h 53% 0.0 mm
03:09 11.7 °C 2.7 °C 1006.6 hPa SSO 10.8 km/h 20.9 km/h 53.8% 0.0 mm
03:14 11.7 °C 2.7 °C 1006.6 hPa SSO 11.9 km/h 16.1 km/h 54% 0.0 mm
03:19 11.6 °C 2.7 °C 1006.6 hPa SSO 11.1 km/h 18.5 km/h 54.7% 0.0 mm
03:24 11.4 °C 2.8 °C 1006.5 hPa Sur 10 km/h 20.4 km/h 55.4% 0.0 mm
03:29 11.3 °C 2.9 °C 1006.5 hPa SSO 10.1 km/h 20.9 km/h 56% 0.0 mm
03:34 11.3 °C 2.8 °C 1006.5 hPa SSO 10.3 km/h 17.2 km/h 56% 0.0 mm
03:39 11.3 °C 2.8 °C 1006.4 hPa SSO 10.3 km/h 20.4 km/h 55.7% 0.0 mm
03:44 11.5 °C 2.8 °C 1006.4 hPa SSO 10.3 km/h 20.9 km/h 55% 0.0 mm
03:49 11.6 °C 2.8 °C 1006.4 hPa SSO 11.5 km/h 26.2 km/h 55% 0.0 mm
03:54 11.5 °C 2.7 °C 1006.3 hPa SSO 13 km/h 25.7 km/h 55% 0.0 mm
03:59 11.4 °C 2.8 °C 1006.3 hPa SSO 12.6 km/h 25.7 km/h 55.3% 0.0 mm
04:04 11.4 °C 2.8 °C 1006.3 hPa SSO 12.2 km/h 24.1 km/h 55.5% 0.0 mm
04:09 11.4 °C 2.9 °C 1006.3 hPa SSO 11.2 km/h 19.3 km/h 56% 0.0 mm
04:14 11.3 °C 2.9 °C 1006.3 hPa SSO 10 km/h 17.2 km/h 56% 0.0 mm
04:19 11.3 °C 2.8 °C 1006.3 hPa SSO 10 km/h 20.4 km/h 56% 0.0 mm
04:24 11.3 °C 2.9 °C 1006.3 hPa SSO 10 km/h 20.9 km/h 56.3% 0.0 mm
04:29 11.2 °C 3 °C 1006.3 hPa SSO 10.1 km/h 17.7 km/h 57% 0.0 mm
04:34 11.2 °C 3 °C 1006.6 hPa SO 10.3 km/h 18 km/h 57% 0.0 mm
04:39 11.2 °C 3.1 °C 1006.6 hPa SO 10.2 km/h 19.3 km/h 57.4% 0.0 mm
04:44 11.2 °C 3 °C 1006.6 hPa SO 10 km/h 22 km/h 57.2% 0.0 mm
04:49 11.2 °C 3 °C 1006.6 hPa SO 10.8 km/h 22.5 km/h 57% 0.0 mm
04:54 11.2 °C 3 °C 1006.6 hPa SO 11.9 km/h 22.2 km/h 57% 0.0 mm
04:59 11.3 °C 3.1 °C 1006.6 hPa SO 12.1 km/h 22.5 km/h 57% 0.0 mm
05:04 11.3 °C 3 °C 1006.8 hPa SO 12.2 km/h 22.5 km/h 56.8% 0.0 mm
05:09 11.4 °C 2.9 °C 1006.8 hPa SSO 12.1 km/h 24.1 km/h 56.1% 0.0 mm
05:14 11.4 °C 3.1 °C 1006.8 hPa SSO 11.9 km/h 24.1 km/h 56.8% 0.0 mm
05:19 11.3 °C 3.1 °C 1006.8 hPa SSO 11.9 km/h 20.9 km/h 57% 0.0 mm
05:24 11.4 °C 3.1 °C 1006.5 hPa SO 11.9 km/h 20.9 km/h 56.7% 0.0 mm
05:29 11.4 °C 2.9 °C 1006.5 hPa SO 11.2 km/h 19.3 km/h 56% 0.0 mm
05:34 11.5 °C 3 °C 1006.5 hPa SSO 10.3 km/h 24.5 km/h 56% 0.0 mm
05:39 11.6 °C 3 °C 1006.5 hPa SO 11.5 km/h 27.8 km/h 55.7% 0.0 mm
05:44 11.8 °C 3 °C 1006.5 hPa SO 13 km/h 27.4 km/h 55% 0.0 mm
05:49 11.7 °C 3.1 °C 1006.7 hPa SSO 13 km/h 22.5 km/h 55.6% 0.0 mm
05:54 11.4 °C 3.1 °C 1006.7 hPa SO 13 km/h 24.5 km/h 56.8% 0.0 mm
05:59 11.3 °C 3.1 °C 1006.7 hPa SO 13.5 km/h 26.2 km/h 57% 0.0 mm
06:04 11.4 °C 3.2 °C 1006.9 hPa SO 14 km/h 25.7 km/h 57% 0.0 mm
06:09 11.4 °C 3.2 °C 1006.9 hPa SO 12 km/h 20.9 km/h 57% 0.0 mm
06:14 11.3 °C 3.1 °C 1006.9 hPa OSO 9.5 km/h 19 km/h 57% 0.0 mm
06:19 11.3 °C 3.1 °C 1007.2 hPa OSO 9.1 km/h 19.3 km/h 57% 0.0 mm
06:24 11.3 °C 3.2 °C 1007.2 hPa Oeste 8.7 km/h 14.5 km/h 57.6% 0.0 mm
06:29 11.2 °C 3.2 °C 1007.2 hPa ONO 7.4 km/h 11.3 km/h 58% 0.0 mm
06:34 11.1 °C 3.3 °C 1007.4 hPa Oeste 5.8 km/h 11.1 km/h 58.9% 0.0 mm
06:39 11 °C 3.3 °C 1007.4 hPa Oeste 5.8 km/h 11.3 km/h 59.2% 0.0 mm
06:44 10.9 °C 3.4 °C 1007.4 hPa OSO 5.8 km/h 9.7 km/h 60% 0.0 mm
06:49 10.9 °C 3.4 °C 1007.7 hPa OSO 4.9 km/h 8 km/h 60% 0.0 mm
06:54 10.8 °C 3.4 °C 1007.7 hPa OSO 3.9 km/h 8 km/h 60% 0.0 mm
06:59 10.8 °C 3.5 °C 1007.7 hPa OSO 3.5 km/h 8 km/h 61% 0.0 mm
07:04 10.8 °C 3.6 °C 1007.7 hPa OSO 3.2 km/h 7.4 km/h 61% 0.0 mm
07:09 10.7 °C 3.5 °C 1007.7 hPa OSO 3.2 km/h 8 km/h 61% 0.0 mm
07:14 10.7 °C 3.7 °C 1007.7 hPa OSO 3.2 km/h 8 km/h 62% 0.0 mm
07:19 10.7 °C 3.7 °C 1007.9 hPa NO 3.5 km/h 8 km/h 62% 0.0 mm
07:24 10.6 °C 3.6 °C 1007.9 hPa NO 3.9 km/h 8 km/h 62% 0.0 mm
07:29 10.5 °C 3.6 °C 1007.9 hPa ONO 3.9 km/h 8 km/h 62.6% 0.0 mm
07:34 10.4 °C 3.6 °C 1008.3 hPa ONO 3.9 km/h 8 km/h 63% 0.0 mm
07:39 10.3 °C 3.7 °C 1008.3 hPa ONO 3.6 km/h 9.3 km/h 63.7% 0.0 mm
07:44 10.2 °C 3.7 °C 1008.3 hPa ONO 3.2 km/h 9.7 km/h 64% 0.0 mm
07:49 10.2 °C 3.9 °C 1008.3 hPa NO 2.8 km/h 6.4 km/h 65% 0.0 mm
07:54 10.2 °C 3.9 °C 1008.2 hPa NO 2.2 km/h 4.7 km/h 65.1% 0.0 mm
07:59 10.2 °C 4.1 °C 1008.2 hPa NO 2.2 km/h 4.8 km/h 66% 0.0 mm
08:04 10.2 °C 4.2 °C 1008.8 hPa NO 2.2 km/h 4.8 km/h 66.4% 0.0 mm
08:09 10.2 °C 4.2 °C 1008.8 hPa NO 2.2 km/h 6.9 km/h 66.2% 0.0 mm
08:14 10.2 °C 4.6 °C 1008.8 hPa ONO 2.2 km/h 13 km/h 67.8% 0.0 mm
08:19 10.3 °C 4.8 °C 1009.0 hPa ONO 4.1 km/h 12.9 km/h 69% 0.0 mm
08:24 10.2 °C 5 °C 1009.0 hPa ONO 6.5 km/h 20.9 km/h 70.3% 0.0 mm
08:29 10.2 °C 5.2 °C 1009.0 hPa NO 7.3 km/h 20.9 km/h 71% 0.0 mm
08:34 10.2 °C 5.3 °C 1009.1 hPa NO 8.4 km/h 22.2 km/h 71.8% 0.0 mm
08:39 10.2 °C 5.4 °C 1009.1 hPa NO 9.2 km/h 22.5 km/h 72% 0.0 mm
08:44 10.2 °C 5.4 °C 1009.1 hPa ONO 10.3 km/h 19.3 km/h 72.1% 0.0 mm
08:49 10.2 °C 5.6 °C 1009.3 hPa ONO 10.3 km/h 19.3 km/h 73% 0.0 mm
08:54 10.2 °C 5.6 °C 1009.3 hPa ONO 10.3 km/h 19.3 km/h 73% 0.0 mm
08:59 10.2 °C 5.6 °C 1009.3 hPa ONO 11.1 km/h 22.5 km/h 73.3% 0.0 mm
09:04 10.2 °C 5.8 °C 1009.5 hPa ONO 11.9 km/h 23.3 km/h 74% 0.0 mm
09:09 10.1 °C 5.7 °C 1009.5 hPa ONO 12.7 km/h 25.9 km/h 74% 0.0 mm
09:14 10.1 °C 5.7 °C 1009.5 hPa ONO 13.7 km/h 25.7 km/h 74% 0.0 mm
09:19 10.2 °C 5.8 °C 1009.5 hPa NO 12 km/h 19.3 km/h 74% 0.0 mm
09:24 10.4 °C 5.8 °C 1009.5 hPa ONO 10 km/h 19.8 km/h 73% 0.0 mm
09:29 10.5 °C 5.8 °C 1009.5 hPa ONO 11 km/h 21.7 km/h 72.6% 0.0 mm
09:34 10.6 °C 5.8 °C 1010.1 hPa ONO 12.2 km/h 28.6 km/h 72% 0.0 mm
09:39 10.6 °C 5.5 °C 1010.1 hPa ONO 14 km/h 31.7 km/h 70.6% 0.0 mm
09:44 10.7 °C 5.4 °C 1010.1 hPa ONO 16.1 km/h 32.2 km/h 70% 0.0 mm
09:49 10.7 °C 5.4 °C 1010.1 hPa Oeste 16.1 km/h 32.2 km/h 70% 0.0 mm
09:54 10.7 °C 5.4 °C 1009.8 hPa Oeste 16.1 km/h 33.5 km/h 69.5% 0.0 mm
09:59 11 °C 5.4 °C 1009.8 hPa Oeste 15.9 km/h 33.8 km/h 68.4% 0.0 mm
10:04 11.3 °C 5.5 °C 1010.2 hPa Oeste 15.6 km/h 28.2 km/h 67% 0.0 mm
10:09 11.6 °C 5.5 °C 1010.2 hPa Oeste 15.8 km/h 33.3 km/h 66.4% 0.0 mm
10:14 11.7 °C 5.5 °C 1010.2 hPa Oeste 16.1 km/h 37 km/h 65.7% 0.0 mm
10:19 11.8 °C 5.3 °C 1010.3 hPa ONO 16.6 km/h 37 km/h 64.4% 0.0 mm
10:24 11.8 °C 5.2 °C 1010.3 hPa Oeste 17.2 km/h 49.2 km/h 64% 0.0 mm
10:29 11.8 °C 5.2 °C 1010.3 hPa ONO 21.1 km/h 50.1 km/h 63.9% 0.0 mm
10:34 11.9 °C 5.2 °C 1010.3 hPa Oeste 26.2 km/h 38.9 km/h 63.6% 0.0 mm
10:39 12.1 °C 5.3 °C 1010.3 hPa Oeste 22.5 km/h 38.6 km/h 63.3% 0.0 mm
10:44 12.2 °C 5.1 °C 1010.3 hPa OSO 18 km/h 31.7 km/h 62.3% 0.0 mm
10:49 12.3 °C 5 °C 1010.3 hPa OSO 16.3 km/h 32.2 km/h 61.3% 0.0 mm
10:54 12.5 °C 5 °C 1010.2 hPa OSO 14 km/h 27.4 km/h 60.4% 0.0 mm
10:59 12.7 °C 5 °C 1010.2 hPa Oeste 14 km/h 30.9 km/h 59.5% 0.0 mm
11:04 13.2 °C 5.1 °C 1010.4 hPa Oeste 14 km/h 32.2 km/h 57.9% 0.0 mm
11:09 13.6 °C 5.1 °C 1010.4 hPa Oeste 15.4 km/h 32.2 km/h 56.7% 0.0 mm
11:14 13.7 °C 5.1 °C 1010.4 hPa Oeste 17.2 km/h 31.7 km/h 56.1% 0.0 mm
11:19 13.8 °C 5 °C 1010.6 hPa Oeste 17.6 km/h 34.6 km/h 55.4% 0.0 mm
11:24 13.9 °C 5 °C 1010.6 hPa Oeste 18 km/h 35.4 km/h 55% 0.0 mm
11:29 14 °C 5.1 °C 1010.6 hPa Oeste 18 km/h 35.4 km/h 55% 0.0 mm
11:34 14.1 °C 5.1 °C 1010.6 hPa Oeste 18 km/h 35.2 km/h 54.6% 0.0 mm
11:39 14.3 °C 5 °C 1010.6 hPa Oeste 18 km/h 43.9 km/h 53.6% 0.0 mm
11:44 14.3 °C 4.7 °C 1010.6 hPa Oeste 18 km/h 49.2 km/h 52.2% 0.0 mm
11:49 14.4 °C 4.8 °C 1010.6 hPa Oeste 21.4 km/h 50.1 km/h 52.4% 0.0 mm
11:54 14.6 °C 4.8 °C 1010.5 hPa Oeste 25.6 km/h 41.8 km/h 52.1% 0.0 mm
11:59 14.7 °C 4.9 °C 1010.5 hPa ONO 22.2 km/h 34.3 km/h 52% 0.0 mm
12:04 14.8 °C 4.9 °C 1010.5 hPa Oeste 19 km/h 38.9 km/h 51.7% 0.0 mm
12:09 14.8 °C 4.8 °C 1010.5 hPa ONO 19.9 km/h 42.6 km/h 51% 0.0 mm
12:14 15.1 °C 5.1 °C 1010.5 hPa ONO 20.9 km/h 41.8 km/h 51.3% 0.0 mm
12:19 15.3 °C 5.3 °C 1010.6 hPa ONO 19.3 km/h 33.8 km/h 51% 0.0 mm
12:24 15.5 °C 5.1 °C 1010.6 hPa ONO 17.2 km/h 32.2 km/h 50% 0.0 mm
12:29 15.6 °C 5.2 °C 1010.6 hPa ONO 16.8 km/h 33.5 km/h 50% 0.0 mm
12:34 15.4 °C 4.9 °C 1010.9 hPa ONO 16.4 km/h 33.8 km/h 49.8% 0.0 mm
12:39 15.3 °C 4.9 °C 1010.9 hPa ONO 18 km/h 37 km/h 50% 0.0 mm
12:44 15.3 °C 4.9 °C 1010.9 hPa ONO 20.1 km/h 37 km/h 50% 0.0 mm
12:49 15.3 °C 5.1 °C 1011.0 hPa ONO 20.1 km/h 35.4 km/h 50.3% 0.0 mm
12:54 15.4 °C 5 °C 1011.0 hPa ONO 20.1 km/h 32.8 km/h 50% 0.0 mm
12:59 15.5 °C 5 °C 1011.0 hPa ONO 18.6 km/h 32.2 km/h 49.8% 0.0 mm
13:04 15.6 °C 4.9 °C 1011.0 hPa Oeste 17.2 km/h 35.2 km/h 49% 0.0 mm
13:09 15.8 °C 4.8 °C 1011.0 hPa ONO 17.2 km/h 35.4 km/h 48% 0.0 mm
13:14 15.9 °C 4.6 °C 1011.0 hPa ONO 17.2 km/h 35.2 km/h 47% 0.0 mm
13:19 16.1 °C 4.6 °C 1011.0 hPa Oeste 18.3 km/h 35.4 km/h 46.5% 0.0 mm
13:24 16.2 °C 4.7 °C 1010.9 hPa Oeste 19.8 km/h 44.3 km/h 46.3% 0.0 mm
13:29 16.4 °C 4.5 °C 1010.9 hPa ONO 20 km/h 43.5 km/h 45% 0.0 mm
13:34 16.7 °C 4.8 °C 1011.0 hPa ONO 20.1 km/h 37 km/h 45.5% 0.0 mm
13:39 16.8 °C 4.6 °C 1011.0 hPa Oeste 19.3 km/h 36.2 km/h 44.3% 0.0 mm
13:44 17.1 °C 4.4 °C 1011.0 hPa ONO 18.4 km/h 37 km/h 43.3% 0.0 mm
13:49 16.9 °C 4 °C 1011.0 hPa ONO 18.6 km/h 37 km/h 42.4% 0.0 mm
13:54 17 °C 4.1 °C 1010.8 hPa ONO 19 km/h 33.8 km/h 42.3% 0.0 mm
13:59 17.3 °C 4.1 °C 1010.8 hPa Oeste 19 km/h 33.5 km/h 41.6% 0.0 mm
14:04 17.6 °C 4.1 °C 1010.8 hPa Oeste 19 km/h 33.8 km/h 40.9% 0.0 mm
14:09 17.6 °C 4.1 °C 1010.7 hPa ONO 18 km/h 43.9 km/h 40.9% 0.0 mm
14:14 17.6 °C 4 °C 1010.7 hPa ONO 16.4 km/h 45.1 km/h 40.4% 0.0 mm
14:19 17.8 °C 3.9 °C 1010.7 hPa Oeste 17.9 km/h 45.1 km/h 39.6% 0.0 mm
14:24 17.9 °C 3.8 °C 1010.7 hPa Oeste 19.8 km/h 43.5 km/h 39.1% 0.0 mm
14:29 18 °C 3.9 °C 1010.7 hPa Oeste 20 km/h 39.6 km/h 39.3% 0.0 mm
14:34 17.8 °C 3.9 °C 1010.7 hPa ONO 20.1 km/h 40.2 km/h 39.5% 0.0 mm
14:39 17.8 °C 3.5 °C 1010.6 hPa ONO 21.6 km/h 42.6 km/h 38.5% 0.0 mm
14:44 17.8 °C 3.3 °C 1010.6 hPa ONO 23.3 km/h 41.8 km/h 38.1% 0.0 mm
14:49 17.7 °C 3.3 °C 1010.8 hPa ONO 21.9 km/h 35.4 km/h 38.4% 0.0 mm
14:54 17.7 °C 3.1 °C 1010.8 hPa Oeste 20.1 km/h 37 km/h 37.9% 0.0 mm
14:59 17.8 °C 3.5 °C 1010.8 hPa Oeste 19.6 km/h 37 km/h 38.6% 0.0 mm
15:04 17.9 °C 3.4 °C 1010.9 hPa ONO 19 km/h 35.9 km/h 38.2% 0.0 mm
15:09 18.1 °C 3.5 °C 1010.9 hPa ONO 18.7 km/h 35.9 km/h 37.9% 0.0 mm
15:14 18.2 °C 3.4 °C 1010.9 hPa Oeste 18.4 km/h 35.4 km/h 37.4% 0.0 mm
15:19 18.4 °C 3.3 °C 1011.0 hPa Oeste 18.6 km/h 35.4 km/h 36.7% 0.0 mm
15:24 18.4 °C 2.9 °C 1011.0 hPa ONO 19 km/h 34.6 km/h 35.6% 0.0 mm
15:29 18.3 °C 2.9 °C 1011.0 hPa Oeste 19.8 km/h 40.7 km/h 35.9% 0.0 mm
15:34 18.3 °C 2.6 °C 1011.0 hPa Oeste 20.9 km/h 44.4 km/h 35.2% 0.0 mm
15:39 18.2 °C 2.5 °C 1011.0 hPa ONO 21.4 km/h 45.1 km/h 35% 0.0 mm
15:44 18.2 °C 2.4 °C 1011.0 hPa ONO 22.1 km/h 40.7 km/h 34.8% 0.0 mm
15:49 18.3 °C 2.2 °C 1011.0 hPa ONO 21 km/h 44.4 km/h 34% 0.0 mm
15:54 18.6 °C 2.4 °C 1010.9 hPa Oeste 19.8 km/h 45.1 km/h 34.1% 0.0 mm
15:59 18.8 °C 2.2 °C 1010.9 hPa ONO 20.4 km/h 33.8 km/h 33.2% 0.0 mm
16:04 18.8 °C 1.9 °C 1010.9 hPa ONO 20.9 km/h 34.3 km/h 32.3% 0.0 mm
16:09 18.8 °C 2.1 °C 1010.8 hPa Oeste 20.1 km/h 33.8 km/h 32.9% 0.0 mm
16:14 19.1 °C 2.2 °C 1010.8 hPa Oeste 19 km/h 33.8 km/h 32.6% 0.0 mm
16:19 19.3 °C 2.3 °C 1010.8 hPa Oeste 19 km/h 33.8 km/h 32.2% 0.0 mm
16:24 19.4 °C 1.9 °C 1010.8 hPa Oeste 19 km/h 39.6 km/h 31.2% 0.0 mm
16:29 19.6 °C 1.7 °C 1010.8 hPa Oeste 19.5 km/h 40.7 km/h 30.6% 0.0 mm
16:34 19.4 °C 1.4 °C 1010.9 hPa Oeste 20.1 km/h 40.2 km/h 30% 0.0 mm
16:39 19.4 °C 1.5 °C 1010.9 hPa Oeste 20.9 km/h 38.9 km/h 30.4% 0.0 mm
16:44 19.3 °C 1.4 °C 1010.9 hPa ONO 21.7 km/h 38.9 km/h 30.2% 0.0 mm
16:49 19.3 °C 1.7 °C 1011.0 hPa Oeste 21 km/h 38.6 km/h 31% 0.0 mm
16:54 19.3 °C 1.7 °C 1011.0 hPa ONO 20.1 km/h 30.6 km/h 31% 0.0 mm
16:59 19.3 °C 1.6 °C 1011.0 hPa ONO 19.1 km/h 38.9 km/h 30.8% 0.0 mm
17:04 19.2 °C 1.5 °C 1011.1 hPa ONO 18 km/h 38.6 km/h 30.6% 0.0 mm
17:09 19.2 °C 1.6 °C 1011.1 hPa Oeste 18.5 km/h 37 km/h 31% 0.0 mm
17:14 19.1 °C 1.6 °C 1011.1 hPa ONO 19 km/h 33.8 km/h 31% 0.0 mm
17:19 19.1 °C 2 °C 1011.1 hPa Oeste 16.5 km/h 28.2 km/h 31.9% 0.0 mm
17:24 19.1 °C 2 °C 1011.0 hPa Oeste 13 km/h 30.6 km/h 32% 0.0 mm
17:29 19.2 °C 2.1 °C 1011.0 hPa ONO 13.5 km/h 33.3 km/h 32% 0.0 mm
17:34 19.2 °C 2.1 °C 1011.0 hPa ONO 14 km/h 33.8 km/h 32% 0.0 mm
17:39 19.2 °C 2.1 °C 1011.0 hPa ONO 15.9 km/h 35.2 km/h 32% 0.0 mm
17:44 19.2 °C 2.1 °C 1011.0 hPa Oeste 18.4 km/h 35.4 km/h 32% 0.0 mm
17:49 19.3 °C 2.2 °C 1011.0 hPa Oeste 16.5 km/h 34.3 km/h 32% 0.0 mm
17:54 19.3 °C 2.1 °C 1010.8 hPa ONO 14 km/h 35.2 km/h 31.8% 0.0 mm
17:59 19.3 °C 1.8 °C 1010.8 hPa ONO 16.5 km/h 37 km/h 31.1% 0.0 mm
18:04 19.3 °C 1.9 °C 1010.9 hPa ONO 19 km/h 37 km/h 31.3% 0.0 mm
18:09 19.3 °C 2.2 °C 1010.9 hPa ONO 18.2 km/h 33.8 km/h 32% 0.0 mm
18:14 19.3 °C 2.3 °C 1010.9 hPa ONO 17.2 km/h 29 km/h 32.3% 0.0 mm
18:19 19.3 °C 2.2 °C 1011.0 hPa ONO 16.5 km/h 33.3 km/h 32% 0.0 mm
18:24 19.2 °C 2.1 °C 1011.0 hPa ONO 15.6 km/h 33.8 km/h 32% 0.0 mm
18:29 19.2 °C 2.3 °C 1011.0 hPa ONO 16.3 km/h 27.8 km/h 32.4% 0.0 mm
18:34 19.2 °C 2.3 °C 1011.1 hPa ONO 17.2 km/h 28.6 km/h 32.7% 0.0 mm
18:39 19.2 °C 2.3 °C 1011.1 hPa ONO 16.7 km/h 29.6 km/h 32.6% 0.0 mm
18:44 19.2 °C 2.5 °C 1011.1 hPa ONO 16.1 km/h 29.6 km/h 33% 0.0 mm
18:49 19.2 °C 2.5 °C 1011.4 hPa ONO 16.1 km/h 29 km/h 33% 0.0 mm
18:54 19.2 °C 2.5 °C 1011.4 hPa ONO 16.1 km/h 25.9 km/h 33% 0.0 mm
18:59 19.1 °C 2.8 °C 1011.4 hPa ONO 16.7 km/h 29.6 km/h 34% 0.0 mm
19:04 19.1 °C 2.8 °C 1011.4 hPa ONO 17.2 km/h 32.3 km/h 34% 0.0 mm
19:09 19.1 °C 2.8 °C 1011.4 hPa ONO 16.9 km/h 35.2 km/h 34% 0.0 mm
19:14 19.1 °C 2.8 °C 1011.4 hPa ONO 16.4 km/h 35.4 km/h 34% 0.0 mm
19:19 19.1 °C 3.1 °C 1011.4 hPa ONO 16.3 km/h 26.2 km/h 34.6% 0.0 mm
19:24 19.1 °C 3.1 °C 1011.4 hPa ONO 16.1 km/h 32.3 km/h 34.7% 0.0 mm
19:29 19 °C 3.1 °C 1011.4 hPa ONO 15.2 km/h 32.2 km/h 34.9% 0.0 mm
19:34 18.9 °C 3.1 °C 1011.7 hPa ONO 14 km/h 29.6 km/h 35% 0.0 mm
19:39 18.9 °C 3.1 °C 1011.7 hPa ONO 14.7 km/h 30.6 km/h 35% 0.0 mm
19:44 18.8 °C 3.3 °C 1011.7 hPa ONO 15.6 km/h 30.6 km/h 35.6% 0.0 mm
19:49 18.8 °C 3.4 °C 1012.0 hPa ONO 14.5 km/h 22.5 km/h 36% 0.0 mm
19:54 18.8 °C 3.4 °C 1012.0 hPa ONO 13 km/h 23.3 km/h 36% 0.0 mm
19:59 18.8 °C 3.4 °C 1012.0 hPa ONO 13 km/h 25.9 km/h 36% 0.0 mm
20:04 18.7 °C 3.7 °C 1012.2 hPa ONO 13 km/h 25.7 km/h 37% 0.0 mm
20:09 18.7 °C 3.8 °C 1012.2 hPa ONO 12.7 km/h 25.6 km/h 37.3% 0.0 mm
20:14 18.6 °C 4 °C 1012.2 hPa ONO 12.2 km/h 25.9 km/h 38% 0.0 mm
20:19 18.5 °C 4 °C 1012.3 hPa ONO 12.9 km/h 25.7 km/h 38.3% 0.0 mm
20:24 18.4 °C 4.2 °C 1012.3 hPa ONO 13.7 km/h 20.9 km/h 39% 0.0 mm
20:29 18.4 °C 4.2 °C 1012.3 hPa ONO 12.6 km/h 19.8 km/h 39% 0.0 mm
20:34 18.3 °C 4.2 °C 1012.4 hPa NO 11.1 km/h 20.9 km/h 39.3% 0.0 mm
20:39 18.3 °C 4.4 °C 1012.4 hPa ONO 10.7 km/h 20.9 km/h 40% 0.0 mm
20:44 18.2 °C 4.4 °C 1012.4 hPa ONO 10.3 km/h 19.3 km/h 40% 0.0 mm
20:49 18.1 °C 4.3 °C 1012.6 hPa ONO 10.2 km/h 16.1 km/h 40% 0.0 mm
20:54 18.1 °C 4.4 °C 1012.6 hPa ONO 10 km/h 16.7 km/h 40.3% 0.0 mm
20:59 18 °C 4.5 °C 1012.6 hPa ONO 9.7 km/h 17.2 km/h 41% 0.0 mm
21:04 17.9 °C 4.5 °C 1012.7 hPa ONO 9.5 km/h 17.7 km/h 41% 0.0 mm
21:09 17.9 °C 4.4 °C 1012.7 hPa ONO 9 km/h 14.5 km/h 41% 0.0 mm
21:14 17.8 °C 4.4 °C 1012.7 hPa ONO 8.4 km/h 14.5 km/h 41% 0.0 mm
21:19 17.8 °C 4.6 °C 1012.8 hPa ONO 7.5 km/h 12.9 km/h 41.8% 0.0 mm
21:24 17.7 °C 4.6 °C 1012.8 hPa Oeste 6.5 km/h 8.4 km/h 41.7% 0.0 mm
21:29 17.7 °C 4.6 °C 1012.8 hPa OSO 5.3 km/h 8 km/h 42% 0.0 mm
21:34 17.7 °C 4.6 °C 1013.1 hPa OSO 3.9 km/h 9.5 km/h 42% 0.0 mm
21:39 17.7 °C 4.6 °C 1013.1 hPa Oeste 4.2 km/h 9.7 km/h 42% 0.0 mm
21:44 17.6 °C 4.5 °C 1013.1 hPa Oeste 4.7 km/h 9.5 km/h 42% 0.0 mm
21:49 17.6 °C 4.6 °C 1013.5 hPa Oeste 5.1 km/h 9.7 km/h 42.2% 0.0 mm
21:54 17.5 °C 4.7 °C 1013.5 hPa Oeste 5.8 km/h 10 km/h 43% 0.0 mm
21:59 17.4 °C 4.7 °C 1013.5 hPa Oeste 5.4 km/h 11.9 km/h 43% 0.0 mm
22:04 17.3 °C 4.8 °C 1013.6 hPa Oeste 5 km/h 11.3 km/h 43.5% 0.0 mm
22:09 17.3 °C 5 °C 1013.6 hPa ONO 5.3 km/h 11.3 km/h 44% 0.0 mm
22:14 17.2 °C 4.9 °C 1013.6 hPa ONO 5.8 km/h 9.7 km/h 44.2% 0.0 mm
22:19 17.2 °C 5 °C 1013.8 hPa ONO 6.1 km/h 13.7 km/h 44.4% 0.0 mm
22:24 17.1 °C 5.1 °C 1013.8 hPa ONO 6.5 km/h 14.5 km/h 45% 0.0 mm
22:29 17.1 °C 5.1 °C 1013.8 hPa ONO 7.3 km/h 13 km/h 45% 0.0 mm
22:34 17.1 °C 5.1 °C 1013.8 hPa Oeste 8.4 km/h 11.3 km/h 45% 0.0 mm
22:39 17.1 °C 5.2 °C 1013.8 hPa Oeste 7 km/h 9.7 km/h 45.6% 0.0 mm
22:44 17 °C 5.3 °C 1013.8 hPa Oeste 5 km/h 8.4 km/h 46% 0.0 mm
22:49 17 °C 5.3 °C 1013.9 hPa Oeste 5 km/h 10 km/h 46% 0.0 mm
22:54 16.9 °C 5.2 °C 1013.9 hPa Oeste 5 km/h 11.9 km/h 46% 0.0 mm
22:59 16.9 °C 5.2 °C 1013.9 hPa OSO 5.4 km/h 13 km/h 46% 0.0 mm
23:04 16.9 °C 5.2 °C 1013.9 hPa OSO 5.8 km/h 13 km/h 46% 0.0 mm
23:09 16.9 °C 5.3 °C 1013.9 hPa SO 6.1 km/h 11.3 km/h 46.4% 0.0 mm
23:14 16.9 °C 5.5 °C 1013.9 hPa SO 6.5 km/h 11.3 km/h 47% 0.0 mm
23:19 16.9 °C 5.5 °C 1013.9 hPa SO 6.5 km/h 11.3 km/h 47% 0.0 mm
23:24 16.9 °C 5.3 °C 1013.8 hPa OSO 6.5 km/h 11.3 km/h 46.3% 0.0 mm
23:29 17 °C 5.3 °C 1013.8 hPa SO 6.7 km/h 11.3 km/h 46% 0.0 mm
23:34 17 °C 5.3 °C 1013.9 hPa Sur 6.9 km/h 11.1 km/h 46% 0.0 mm
23:39 17 °C 5.4 °C 1013.9 hPa Sur 6.5 km/h 11.3 km/h 46.5% 0.0 mm
23:44 16.9 °C 5.5 °C 1013.9 hPa Sur 5.8 km/h 9.7 km/h 47% 0.0 mm
23:49 16.8 °C 5.8 °C 1014.0 hPa SE 4.9 km/h 10 km/h 48% 0.0 mm
23:54 16.6 °C 5.8 °C 1014.0 hPa SE 3.9 km/h 9.7 km/h 49% 0.0 mm
23:59 16.3 °C 5.8 °C 1014.0 hPa SE 3.9 km/h 8 km/h 49.6% 0.0 mm
Murcia-Puente Tocinos, España
Compliments of Weather Underground - 3 mb

La estación de MeteoMurcia.com, publica sus datos en los siguientes proyectos:

Weather Underground PWS IMURCIAP2 Meteoclimatic www.awekas.at

W3Counter
Web Analytics